»·PEaware :: SWA1595 KSAN-KSMF

SWA1595 :: KSAN-KSMF

FLIGHT INFORMATION

Flight Status: Arrived
Operator:
Southwest Airlines
More flights by this operator :: More flights under this callsign
Pilot: Kyle A. (14988)
Aircraft: BOEING 737-700
(B737)
More flights by this aircraft type
Origin: KSAN San Diego Intl-Lindbergh
United States
Destination: KSMF Sacramento Intl
United States
More flights between these airports :: More routes between these airports
Route: +PADRZ2 EHF NURAY SUUTR2
File this flight plan on PilotEdge
Remarks: / L
Altitude:
(Current/Filed)
31,000ft
Speed:
(Current/Filed)
460kts
Departed: 15-Feb-18 11:08 AM
Arrived: 15-Feb-18 12:22 PM
Distance/Time
Traveled:
417nm/1:14
Distance/Time
To Go:
Arrived

Flight Plot

Page will automatically refresh every two minutes.

Flight plan parsing failed; only flown route is shown


Map Options




Map Legend


Flown Route
Filed Route
Departure Airport
Arrival Airport
Navaid (VOR, NDB)
Fix

Horizontal Profiles

Position Reports

Time Latitude Longitude Heading Altitude Ground
Speed
15-Feb-18 10:33 32.733260 -117.196053 197 23ft 0kts
15-Feb-18 10:34 32.733260 -117.196053 197 23ft 0kts
15-Feb-18 10:35 32.733260 -117.196053 197 23ft 0kts
15-Feb-18 10:36 32.733260 -117.196053 197 23ft 0kts
15-Feb-18 10:37 32.733260 -117.196053 197 23ft 0kts
15-Feb-18 10:38 32.733260 -117.196053 197 23ft 0kts
15-Feb-18 10:39 32.733260 -117.196053 197 23ft 0kts
15-Feb-18 10:40 32.733260 -117.196053 197 23ft 0kts
15-Feb-18 10:41 32.733260 -117.196053 197 23ft 0kts
15-Feb-18 10:42 32.733260 -117.196053 197 23ft 0kts
15-Feb-18 10:43 32.733260 -117.196053 197 23ft 0kts
15-Feb-18 10:44 32.733260 -117.196053 197 23ft 0kts
15-Feb-18 10:45 32.733260 -117.196053 197 23ft 0kts
15-Feb-18 10:46 32.733260 -117.196053 197 23ft 0kts
15-Feb-18 10:47 32.733260 -117.196053 197 23ft 0kts
15-Feb-18 10:48 32.733260 -117.196053 197 23ft 0kts
15-Feb-18 10:49 32.733260 -117.196053 197 23ft 0kts
15-Feb-18 10:50 32.733260 -117.196053 197 23ft 0kts
15-Feb-18 10:51 32.733260 -117.196053 197 23ft 0kts
15-Feb-18 10:52 32.733260 -117.196053 197 23ft 0kts
15-Feb-18 10:53 32.733260 -117.196053 197 23ft 0kts
15-Feb-18 10:54 32.733260 -117.196053 197 23ft 0kts
15-Feb-18 10:55 32.733260 -117.196053 197 23ft 0kts
15-Feb-18 10:56 32.733260 -117.196053 197 23ft 0kts
15-Feb-18 10:57 32.733260 -117.196053 197 23ft 0kts
15-Feb-18 10:58 32.733260 -117.196053 197 23ft 0kts
15-Feb-18 10:59 32.733260 -117.196053 197 23ft 0kts
15-Feb-18 11:00 32.733260 -117.196053 197 23ft 0kts
15-Feb-18 11:01 32.733260 -117.196053 197 23ft 0kts
15-Feb-18 11:02 32.733819 -117.195974 167 23ft 2kts
15-Feb-18 11:03 32.734168 -117.196339 105 23ft 0kts
15-Feb-18 11:04 32.734168 -117.196339 105 23ft 0kts
15-Feb-18 11:05 32.734168 -117.196339 105 23ft 0kts
15-Feb-18 11:06 32.734168 -117.196339 105 23ft 0kts
15-Feb-18 11:07 32.734168 -117.196339 105 23ft 0kts
15-Feb-18 11:08 32.734168 -117.196339 105 23ft 0kts
15-Feb-18 11:09 32.734168 -117.196339 105 23ft 0kts
15-Feb-18 11:10 32.733582 -117.193915 105 23ft 9kts
15-Feb-18 11:11 32.732234 -117.188368 106 23ft 17kts
15-Feb-18 11:12 32.730869 -117.182729 105 23ft 27kts
15-Feb-18 11:13 32.729511 -117.176781 73 23ft 0kts
15-Feb-18 11:14 32.729924 -117.175824 1 23ft 10kts
15-Feb-18 11:15 32.734944 -117.195532 285 344ft 156kts
15-Feb-18 11:16 32.757850 -117.245399 303 3112ft 211kts
15-Feb-18 11:17 32.796056 -117.312506 304 6460ft 267kts
15-Feb-18 11:18 32.843033 -117.385817 308 10436ft 286kts
15-Feb-18 11:19 32.888029 -117.455418 306 12827ft 334kts
15-Feb-18 11:20 32.946223 -117.545840 304 16394ft 352kts
15-Feb-18 11:21 33.006987 -117.640716 302 19699ft 369kts
15-Feb-18 11:22 33.073233 -117.738452 310 22565ft 392kts
15-Feb-18 11:23 33.158057 -117.825410 312 24983ft 411kts
15-Feb-18 11:24 33.241519 -117.908532 312 26946ft 425kts
15-Feb-18 11:25 33.326879 -117.991807 311 28649ft 437kts
15-Feb-18 11:26 33.420213 -118.082877 310 30952ft 432kts
15-Feb-18 11:27 33.503387 -118.164680 310 31199ft 432kts
15-Feb-18 11:28 33.583003 -118.237774 319 31202ft 442kts
15-Feb-18 11:29 33.669145 -118.287663 325 31202ft 440kts
15-Feb-18 11:30 33.751742 -118.333061 325 31200ft 451kts
15-Feb-18 11:31 33.866384 -118.391222 327 31196ft 452kts
15-Feb-18 11:32 34.002730 -118.456458 335 31189ft 460kts
15-Feb-18 11:33 34.109413 -118.477323 344 31186ft 467kts
15-Feb-18 11:34 34.259634 -118.499599 344 31183ft 465kts
15-Feb-18 11:35 34.362412 -118.515313 345 31191ft 464kts
15-Feb-18 11:36 34.476006 -118.532797 345 31230ft 457kts
15-Feb-18 11:37 34.602909 -118.552447 345 31255ft 458kts
15-Feb-18 11:38 34.729267 -118.572071 345 31266ft 455kts
15-Feb-18 11:39 34.854409 -118.591595 345 31274ft 453kts
15-Feb-18 11:40 34.978684 -118.612247 339 31277ft 445kts
15-Feb-18 11:41 35.081015 -118.685779 314 31284ft 422kts
15-Feb-18 11:42 35.168414 -118.774572 314 31295ft 421kts
15-Feb-18 11:43 35.248129 -118.855631 315 31314ft 421kts
15-Feb-18 11:44 35.327579 -118.936317 315 31334ft 420kts
15-Feb-18 11:45 35.416986 -119.027887 315 31348ft 419kts
15-Feb-18 11:46 35.512061 -119.111242 329 31350ft 425kts
15-Feb-18 11:47 35.620229 -119.170224 332 31349ft 425kts
15-Feb-18 11:48 35.728234 -119.228376 332 31350ft 423kts
15-Feb-18 11:49 35.836086 -119.286544 332 31350ft 421kts
15-Feb-18 11:50 35.943148 -119.344376 333 31352ft 419kts
15-Feb-18 11:51 36.049488 -119.402106 333 31352ft 414kts
15-Feb-18 11:52 36.154965 -119.459521 333 31353ft 413kts
15-Feb-18 11:53 36.259921 -119.516842 333 31354ft 412kts
15-Feb-18 11:54 36.365143 -119.574353 333 31358ft 412kts
15-Feb-18 11:55 36.469815 -119.631924 333 31357ft 412kts
15-Feb-18 11:56 36.574434 -119.689655 333 31352ft 411kts
15-Feb-18 11:57 36.673046 -119.761522 326 31350ft 409kts
15-Feb-18 11:58 36.769109 -119.837270 326 31350ft 408kts
15-Feb-18 11:59 36.864950 -119.912872 326 31347ft 408kts
15-Feb-18 12:00 36.961087 -119.988521 326 31342ft 407kts
15-Feb-18 12:01 37.056187 -120.063546 328 31340ft 403kts
15-Feb-18 12:02 37.151110 -120.138874 328 31338ft 402kts
15-Feb-18 12:03 37.244613 -120.213442 328 30254ft 392kts
15-Feb-18 12:04 37.335877 -120.286261 329 27893ft 388kts
15-Feb-18 12:05 37.426158 -120.358649 329 25473ft 378kts
15-Feb-18 12:06 37.510170 -120.433096 324 23398ft 363kts
15-Feb-18 12:07 37.586919 -120.511223 325 21605ft 349kts
15-Feb-18 12:08 37.661668 -120.586129 325 20203ft 340kts
15-Feb-18 12:09 37.735039 -120.659884 325 18865ft 334kts
15-Feb-18 12:10 37.806282 -120.731838 325 17230ft 323kts
15-Feb-18 12:11 37.876351 -120.802461 325 15925ft 321kts
15-Feb-18 12:12 37.945568 -120.872748 325 14656ft 317kts
15-Feb-18 12:13 38.013950 -120.942421 325 13421ft 311kts
15-Feb-18 12:14 38.079878 -121.011944 318 12216ft 308kts
15-Feb-18 12:15 38.133011 -121.089999 315 11049ft 276kts
15-Feb-18 12:16 38.181576 -121.162149 314 9997ft 267kts
15-Feb-18 12:17 38.230394 -121.233458 315 8935ft 268kts
15-Feb-18 12:18 38.280101 -121.303088 315 7902ft 263kts
15-Feb-18 12:19 38.329214 -121.371739 314 6875ft 259kts
15-Feb-18 12:20 38.377162 -121.439431 314 5864ft 256kts
15-Feb-18 12:21 38.424298 -121.506178 314 4866ft 247kts
15-Feb-18 12:22 38.467971 -121.568111 315 3941ft 223kts
15-Feb-18 12:23 38.507939 -121.602929 356 3177ft 182kts
15-Feb-18 12:24 38.552582 -121.603604 0 2522ft 143kts
15-Feb-18 12:25 38.591017 -121.602997 358 1826ft 127kts
15-Feb-18 12:26 38.624548 -121.602446 357 1189ft 117kts
15-Feb-18 12:27 38.656486 -121.601920 357 581ft 112kts
15-Feb-18 12:28 38.688050 -121.601417 0 47ft 108kts
15-Feb-18 12:29 38.701297 -121.599817 91 36ft 9kts
15-Feb-18 12:30 38.698675 -121.598608 181 36ft 14kts
15-Feb-18 12:31 38.697001 -121.596436 92 36ft 7kts
15-Feb-18 12:32 38.696682 -121.595352 158 36ft 0kts
15-Feb-18 12:33 38.696291 -121.595141 155 36ft 0kts
15-Feb-18 12:34 38.696291 -121.595141 155 36ft 0kts
15-Feb-18 12:35 38.696291 -121.595141 155 36ft 0kts
15-Feb-18 12:36 38.696291 -121.595141 155 36ft 0kts
15-Feb-18 12:37 38.696291 -121.595141 155 36ft 0kts
15-Feb-18 12:38 38.696291 -121.595141 155 36ft 0kts
15-Feb-18 12:39 38.696291 -121.595141 155 36ft 0kts
15-Feb-18 12:40 38.696291 -121.595141 155 36ft 0kts
15-Feb-18 12:41 38.696291 -121.595141 155 36ft 0kts
15-Feb-18 12:42 38.696291 -121.595141 155 36ft 0kts
15-Feb-18 12:43 38.696291 -121.595141 155 36ft 0kts

Navigation Log

Ident Type
Flight plan parsing failed, navigation log unavailable